createdAt,value
2022-09-09T00:01:46.615Z,11.90
2022-09-09T00:04:22.645Z,11.90
2022-09-09T00:07:06.700Z,11.80
2022-09-09T00:09:50.216Z,11.80
2022-09-09T00:12:33.720Z,11.80
2022-09-09T00:15:13.019Z,11.70
2022-09-09T00:18:15.381Z,11.80
2022-09-09T00:20:58.286Z,11.70
2022-09-09T00:23:27.200Z,11.70
2022-09-09T00:26:12.357Z,11.70
2022-09-09T00:28:49.609Z,11.70
2022-09-09T00:31:28.824Z,11.70
2022-09-09T00:34:03.943Z,11.60
2022-09-09T00:36:34.629Z,11.60
2022-09-09T00:39:03.107Z,11.60
2022-09-09T00:41:30.155Z,11.60
2022-09-09T00:44:21.985Z,11.60
2022-09-09T00:47:04.925Z,11.60
2022-09-09T00:50:01.777Z,11.60
2022-09-09T00:52:54.363Z,11.60
2022-09-09T00:55:39.166Z,11.60
2022-09-09T00:58:09.500Z,11.60
2022-09-09T01:00:50.151Z,11.70
2022-09-09T01:03:34.229Z,11.70
2022-09-09T01:06:22.847Z,11.80
2022-09-09T01:09:03.644Z,11.70
2022-09-09T01:12:02.457Z,11.70
2022-09-09T01:14:35.334Z,11.70
2022-09-09T01:17:06.990Z,11.60
2022-09-09T01:19:47.594Z,11.60
2022-09-09T01:22:31.351Z,11.60
2022-09-09T01:25:11.465Z,11.60
2022-09-09T01:27:41.658Z,11.60
2022-09-09T01:30:17.051Z,11.60
2022-09-09T01:32:47.327Z,11.60
2022-09-09T01:35:46.695Z,11.70
2022-09-09T01:38:14.800Z,11.60
2022-09-09T01:40:42.619Z,11.70
2022-09-09T01:43:10.381Z,11.70
2022-09-09T01:45:39.393Z,11.70
2022-09-09T01:48:06.852Z,11.70
2022-09-09T01:50:34.044Z,11.70
2022-09-09T01:53:03.713Z,11.70
2022-09-09T01:55:39.701Z,11.70
2022-09-09T01:58:18.610Z,11.70
2022-09-09T02:01:10.775Z,11.70
2022-09-09T02:03:38.254Z,11.70
2022-09-09T02:06:18.365Z,11.70
2022-09-09T02:08:51.370Z,11.70
2022-09-09T02:11:21.465Z,11.70
2022-09-09T02:13:51.978Z,11.70
2022-09-09T02:16:27.455Z,11.80
2022-09-09T02:19:14.206Z,11.80
2022-09-09T02:21:45.080Z,11.90
2022-09-09T02:24:15.519Z,11.80
2022-09-09T02:26:46.355Z,11.80
2022-09-09T02:29:21.661Z,11.80
2022-09-09T02:31:52.699Z,11.70
2022-09-09T02:34:22.913Z,11.70
2022-09-09T02:36:54.802Z,11.70
2022-09-09T02:39:22.195Z,11.70
2022-09-09T02:41:49.792Z,11.70
2022-09-09T02:44:19.347Z,11.70
2022-09-09T02:47:47.994Z,11.70
2022-09-09T02:50:32.197Z,11.80
2022-09-09T02:53:08.892Z,11.70
2022-09-09T02:55:51.328Z,11.80
2022-09-09T02:58:20.124Z,11.80
2022-09-09T03:00:50.723Z,11.80
2022-09-09T03:03:21.018Z,11.80
2022-09-09T03:05:52.929Z,11.70
2022-09-09T03:08:24.677Z,11.90
2022-09-09T03:10:55.500Z,11.90
2022-09-09T03:13:22.916Z,11.80
2022-09-09T03:15:50.093Z,11.80
2022-09-09T03:18:17.654Z,11.80
2022-09-09T03:20:45.034Z,11.90
2022-09-09T03:23:15.883Z,11.90
2022-09-09T03:25:53.412Z,11.90
2022-09-09T03:28:21.785Z,11.90
2022-09-09T03:30:50.198Z,11.80
2022-09-09T03:33:17.473Z,11.80
2022-09-09T03:35:51.700Z,11.80
2022-09-09T03:38:19.400Z,11.80
2022-09-09T03:40:51.404Z,11.80
2022-09-09T03:43:18.719Z,11.90
2022-09-09T03:45:49.771Z,11.90
2022-09-09T03:48:18.164Z,11.90
2022-09-09T03:50:47.584Z,11.90
2022-09-09T03:53:16.299Z,12.00
2022-09-09T03:55:53.798Z,12.00
2022-09-09T03:58:22.740Z,12.00
2022-09-09T04:00:59.269Z,12.00
2022-09-09T04:03:28.786Z,12.00
2022-09-09T04:05:57.625Z,12.10
2022-09-09T04:08:27.873Z,12.00
2022-09-09T04:10:59.070Z,12.00
2022-09-09T04:13:27.974Z,12.10
2022-09-09T04:15:58.743Z,12.10
2022-09-09T04:18:29.625Z,12.00
2022-09-09T04:20:59.087Z,12.00
2022-09-09T04:23:30.027Z,12.10
2022-09-09T04:26:00.151Z,12.10
2022-09-09T04:28:30.235Z,12.10
2022-09-09T04:31:01.882Z,12.20
2022-09-09T04:33:34.309Z,12.10
2022-09-09T04:36:04.511Z,12.10
2022-09-09T04:38:35.069Z,12.10
2022-09-09T04:41:02.570Z,12.10
2022-09-09T04:43:31.980Z,12.20
2022-09-09T04:46:00.876Z,12.20
2022-09-09T04:48:28.836Z,12.20
2022-09-09T04:51:10.456Z,12.20
2022-09-09T04:53:39.198Z,12.30
2022-09-09T04:56:09.149Z,12.30
2022-09-09T04:58:38.208Z,12.30
2022-09-09T05:01:11.796Z,12.40
2022-09-09T05:03:39.435Z,12.40
2022-09-09T05:06:09.453Z,12.40
2022-09-09T05:08:39.175Z,12.40
2022-09-09T05:11:39.330Z,12.40
2022-09-09T05:14:07.145Z,12.40
2022-09-09T05:16:34.609Z,12.40
2022-09-09T05:19:04.426Z,12.40
2022-09-09T05:21:32.648Z,12.50
2022-09-09T05:24:01.570Z,12.40
2022-09-09T05:26:30.514Z,12.40
2022-09-09T05:28:58.125Z,12.40
2022-09-09T05:31:27.300Z,12.50
2022-09-09T05:33:54.491Z,12.40
2022-09-09T05:36:25.917Z,12.50
2022-09-09T05:38:54.989Z,12.50
2022-09-09T05:41:24.239Z,12.50
2022-09-09T05:43:52.438Z,12.50
2022-09-09T05:46:28.437Z,12.60
2022-09-09T05:48:57.188Z,12.60
2022-09-09T05:51:28.544Z,12.60
2022-09-09T05:54:10.657Z,12.60
2022-09-09T05:56:38.636Z,12.60
2022-09-09T05:59:07.167Z,12.60
2022-09-09T06:01:42.029Z,12.60
2022-09-09T06:04:09.985Z,12.70
2022-09-09T06:06:40.680Z,12.70
2022-09-09T06:09:10.973Z,12.70
2022-09-09T06:11:40.242Z,12.80
2022-09-09T06:14:08.341Z,12.80
2022-09-09T06:16:36.326Z,12.90
2022-09-09T06:19:04.418Z,12.90
2022-09-09T06:21:36.080Z,12.90
2022-09-09T06:24:04.184Z,13.00
2022-09-09T06:26:36.972Z,13.00
2022-09-09T06:29:05.215Z,13.00
2022-09-09T06:31:35.652Z,13.00
2022-09-09T06:34:05.060Z,13.00
2022-09-09T06:36:34.720Z,13.00
2022-09-09T06:39:02.671Z,13.00
2022-09-09T06:41:31.898Z,13.00
2022-09-09T06:43:59.259Z,13.00
2022-09-09T06:46:29.241Z,13.00
2022-09-09T06:48:59.944Z,13.10
2022-09-09T06:51:30.709Z,13.20
2022-09-09T06:53:59.895Z,13.10
2022-09-09T06:56:34.079Z,13.10
2022-09-09T06:59:04.960Z,13.10
2022-09-09T07:01:38.092Z,13.10
2022-09-09T07:04:08.576Z,13.00
2022-09-09T07:06:44.496Z,13.10
2022-09-09T07:09:14.404Z,13.20
2022-09-09T07:11:47.538Z,13.10
2022-09-09T07:14:15.755Z,13.00
2022-09-09T07:16:43.851Z,12.90
2022-09-09T07:19:12.477Z,13.00
2022-09-09T07:21:41.403Z,13.10
2022-09-09T07:24:11.228Z,13.10
2022-09-09T07:26:40.407Z,13.20
2022-09-09T07:29:09.830Z,13.30
2022-09-09T07:31:40.969Z,13.20
2022-09-09T07:34:08.938Z,13.20
2022-09-09T07:36:39.097Z,13.20
2022-09-09T07:39:11.990Z,13.20
2022-09-09T07:41:46.299Z,13.20
2022-09-09T07:44:17.011Z,13.20
2022-09-09T07:46:46.387Z,13.20
2022-09-09T07:49:13.849Z,13.30
2022-09-09T07:51:43.948Z,13.20
2022-09-09T07:54:13.713Z,13.20
2022-09-09T07:56:52.791Z,13.30
2022-09-09T07:59:25.481Z,13.30
2022-09-09T08:01:56.314Z,13.30
2022-09-09T08:04:25.161Z,13.30
2022-09-09T08:06:55.732Z,13.30
2022-09-09T08:09:26.191Z,13.30
2022-09-09T08:11:53.912Z,13.30
2022-09-09T08:14:21.196Z,13.50
2022-09-09T08:16:49.376Z,13.60
2022-09-09T08:19:17.550Z,13.60
2022-09-09T08:21:45.711Z,13.60
2022-09-09T08:24:15.068Z,13.60
2022-09-09T08:26:45.339Z,13.60
2022-09-09T08:29:14.919Z,13.60
2022-09-09T08:31:47.562Z,13.60
2022-09-09T08:34:16.244Z,13.60
2022-09-09T08:36:45.534Z,13.60
2022-09-09T08:39:15.430Z,13.70
2022-09-09T08:42:03.986Z,13.70
2022-09-09T08:45:10.289Z,13.60
2022-09-09T08:47:50.420Z,13.70
2022-09-09T08:50:32.956Z,13.80
2022-09-09T08:53:09.331Z,13.70
2022-09-09T08:55:43.690Z,13.80
2022-09-09T09:01:22.662Z,13.90
2022-09-09T09:03:55.502Z,13.90
2022-09-09T09:06:45.949Z,13.90
2022-09-09T09:09:19.835Z,13.80
2022-09-09T09:11:53.792Z,13.80
2022-09-09T09:17:06.582Z,13.90
2022-09-09T09:19:36.197Z,14.00
2022-09-09T09:22:16.353Z,14.10
2022-09-09T09:24:54.758Z,14.10
2022-09-09T09:27:29.779Z,14.10
2022-09-09T09:30:29.476Z,14.10
2022-09-09T09:33:15.368Z,14.00
2022-09-09T09:35:44.417Z,14.00
2022-09-09T09:41:16.367Z,14.10
2022-09-09T09:43:55.481Z,14.10
2022-09-09T09:46:26.770Z,14.10
2022-09-09T09:49:06.588Z,14.10
2022-09-09T09:51:35.204Z,14.20
2022-09-09T09:54:43.584Z,14.20
2022-09-09T09:57:12.884Z,14.30
2022-09-09T09:59:41.117Z,14.30
2022-09-09T10:02:26.720Z,14.30
2022-09-09T10:05:27.213Z,14.40
2022-09-09T10:08:14.868Z,14.40
2022-09-09T10:11:04.388Z,14.30
2022-09-09T10:13:34.563Z,14.40
2022-09-09T10:16:08.377Z,14.50
2022-09-09T10:18:49.991Z,14.60
2022-09-09T10:21:33.264Z,14.60
2022-09-09T10:24:34.668Z,14.60
2022-09-09T10:27:21.227Z,14.60
2022-09-09T10:29:58.308Z,14.50
2022-09-09T10:32:37.154Z,14.40
2022-09-09T10:35:28.373Z,14.50
2022-09-09T10:38:15.512Z,14.50
2022-09-09T10:41:06.556Z,14.60
2022-09-09T10:43:49.235Z,14.50
2022-09-09T10:46:35.170Z,14.50
2022-09-09T10:49:23.215Z,14.60
2022-09-09T10:52:23.491Z,14.50
2022-09-09T10:55:13.670Z,14.40
2022-09-09T10:57:49.813Z,14.40
2022-09-09T11:00:23.287Z,14.40
2022-09-09T11:02:57.385Z,14.40
2022-09-09T11:05:45.949Z,14.40
2022-09-09T11:08:30.361Z,14.50
2022-09-09T11:11:13.146Z,14.50
2022-09-09T11:14:00.728Z,14.50
2022-09-09T11:16:52.049Z,14.40
2022-09-09T11:19:28.266Z,14.50
2022-09-09T11:21:59.440Z,14.60
2022-09-09T11:24:32.916Z,14.60
2022-09-09T11:27:13.299Z,14.60
2022-09-09T11:30:37.707Z,14.70
2022-09-09T11:33:29.605Z,14.70
2022-09-09T11:36:44.646Z,14.70
2022-09-09T11:39:15.014Z,14.70
2022-09-09T11:41:42.891Z,14.70
2022-09-09T11:44:18.533Z,14.80
2022-09-09T11:46:50.929Z,14.80
2022-09-09T11:49:29.607Z,14.90
2022-09-09T11:51:57.033Z,14.90
2022-09-09T11:54:33.431Z,14.90
2022-09-09T11:57:00.989Z,14.90
2022-09-09T11:59:33.349Z,15.00
2022-09-09T12:02:17.794Z,14.90
2022-09-09T12:05:01.927Z,14.90
2022-09-09T12:07:32.323Z,15.00
2022-09-09T12:10:21.870Z,15.10
2022-09-09T12:12:49.157Z,15.00
2022-09-09T12:15:22.430Z,15.00
2022-09-09T12:17:52.805Z,15.00
2022-09-09T12:20:37.443Z,15.00
2022-09-09T12:23:21.724Z,14.90
2022-09-09T12:26:17.011Z,15.00
2022-09-09T12:29:11.124Z,14.90
2022-09-09T12:31:45.480Z,14.70
2022-09-09T12:34:23.482Z,14.80
2022-09-09T12:37:07.607Z,14.90
2022-09-09T12:39:47.532Z,14.90
2022-09-09T12:42:22.712Z,14.90
2022-09-09T12:45:00.730Z,14.90
2022-09-09T12:47:48.660Z,15.00
2022-09-09T12:50:28.739Z,15.10
2022-09-09T12:53:00.068Z,15.10
2022-09-09T12:55:34.408Z,15.20
2022-09-09T12:58:06.592Z,15.30
2022-09-09T13:00:35.996Z,15.20
2022-09-09T13:03:18.705Z,15.20
2022-09-09T13:05:47.852Z,15.20
2022-09-09T13:08:19.616Z,15.10
2022-09-09T13:11:00.235Z,15.10
2022-09-09T13:13:39.658Z,15.10
2022-09-09T13:16:19.084Z,15.00
2022-09-09T13:18:47.604Z,15.00
2022-09-09T13:21:15.309Z,15.00
2022-09-09T13:23:42.848Z,15.00
2022-09-09T13:26:27.933Z,15.00
2022-09-09T13:28:55.992Z,14.90
2022-09-09T13:31:32.891Z,14.80
2022-09-09T13:34:00.232Z,14.90
2022-09-09T13:36:33.306Z,14.80
2022-09-09T13:39:02.720Z,14.80
2022-09-09T13:41:43.015Z,14.80
2022-09-09T13:44:24.101Z,14.80
2022-09-09T13:47:14.557Z,14.90
2022-09-09T13:49:41.622Z,14.90
2022-09-09T13:52:18.204Z,14.90
2022-09-09T13:54:52.462Z,15.00
2022-09-09T13:57:22.488Z,14.90
2022-09-09T14:00:06.473Z,14.80
2022-09-09T14:02:34.917Z,14.80
2022-09-09T14:05:02.698Z,14.90
2022-09-09T14:07:30.168Z,14.90
2022-09-09T14:09:57.778Z,14.90
2022-09-09T14:12:25.490Z,14.80
2022-09-09T14:14:52.564Z,14.80
2022-09-09T14:17:20.091Z,14.80
2022-09-09T14:19:47.225Z,14.70
2022-09-09T14:22:15.116Z,14.80
2022-09-09T14:24:43.192Z,14.80
2022-09-09T14:27:10.677Z,14.70
2022-09-09T14:29:37.971Z,14.70
2022-09-09T14:32:08.392Z,14.80
2022-09-09T14:34:38.554Z,14.70
2022-09-09T14:37:05.731Z,14.80
2022-09-09T14:39:33.546Z,14.80
2022-09-09T14:42:00.922Z,15.00
2022-09-09T14:44:28.379Z,14.90
2022-09-09T14:46:56.083Z,15.00
2022-09-09T14:49:23.974Z,15.10
2022-09-09T14:51:51.432Z,15.10
2022-09-09T14:54:18.952Z,15.10
2022-09-09T14:56:46.282Z,15.10
2022-09-09T14:59:14.224Z,15.10
2022-09-09T15:01:42.593Z,15.10
2022-09-09T15:04:16.346Z,15.10
2022-09-09T15:06:48.141Z,15.20
2022-09-09T15:09:16.599Z,15.10
2022-09-09T15:11:45.363Z,15.20
2022-09-09T15:14:13.268Z,15.10
2022-09-09T15:16:41.808Z,15.10
2022-09-09T15:19:10.406Z,14.90
2022-09-09T15:21:45.832Z,15.00
2022-09-09T15:24:14.828Z,15.00
2022-09-09T15:26:42.625Z,15.00
2022-09-09T15:29:10.188Z,15.10
2022-09-09T15:31:38.442Z,15.10
2022-09-09T15:34:08.270Z,15.10
2022-09-09T15:36:42.951Z,15.10
2022-09-09T15:39:16.786Z,15.10
2022-09-09T15:41:45.578Z,15.20
2022-09-09T15:44:13.410Z,15.10
2022-09-09T15:46:42.408Z,15.10
2022-09-09T15:49:18.498Z,15.10
2022-09-09T15:51:48.236Z,15.00
2022-09-09T15:54:18.548Z,15.10
2022-09-09T15:56:47.554Z,14.90
2022-09-09T15:59:15.849Z,14.90
2022-09-09T16:01:45.166Z,14.90
2022-09-09T16:04:12.702Z,14.90
2022-09-09T16:06:40.525Z,15.00
2022-09-09T16:09:08.798Z,15.10
2022-09-09T16:11:38.294Z,15.10
2022-09-09T16:14:07.636Z,15.10
2022-09-09T16:16:36.277Z,15.10
2022-09-09T16:19:11.392Z,15.10
2022-09-09T16:21:42.864Z,15.00
2022-09-09T16:24:15.317Z,15.00
2022-09-09T16:26:47.362Z,15.10
2022-09-09T16:29:16.536Z,15.00
2022-09-09T16:31:45.165Z,14.80
2022-09-09T16:34:12.704Z,14.80
2022-09-09T16:36:42.068Z,14.80
2022-09-09T16:39:15.168Z,14.80
2022-09-09T16:41:44.930Z,14.80
2022-09-09T16:44:14.619Z,14.70
2022-09-09T16:46:43.757Z,14.70
2022-09-09T16:49:13.319Z,14.60
2022-09-09T16:51:48.197Z,14.60
2022-09-09T16:54:19.333Z,14.60
2022-09-09T16:56:48.895Z,14.60
2022-09-09T16:59:18.893Z,14.50
2022-09-09T17:01:48.708Z,14.50
2022-09-09T17:04:26.511Z,14.50
2022-09-09T17:06:55.126Z,14.50
2022-09-09T17:09:24.086Z,14.50
2022-09-09T17:11:52.664Z,14.40
2022-09-09T17:14:21.820Z,14.40
2022-09-09T17:16:49.766Z,14.40
2022-09-09T17:19:17.184Z,14.40
2022-09-09T17:22:06.289Z,14.40
2022-09-09T17:24:34.188Z,14.40
2022-09-09T17:27:02.384Z,14.40
2022-09-09T17:29:29.615Z,14.40
2022-09-09T17:31:57.580Z,14.40
2022-09-09T17:34:26.354Z,14.40
2022-09-09T17:36:53.519Z,14.40
2022-09-09T17:39:20.938Z,14.40
2022-09-09T17:41:47.993Z,14.50
2022-09-09T17:44:16.276Z,14.40
2022-09-09T17:46:44.500Z,14.40
2022-09-09T17:49:15.479Z,14.50
2022-09-09T17:51:43.514Z,14.50
2022-09-09T17:54:19.714Z,14.40
2022-09-09T17:56:48.446Z,14.40
2022-09-09T17:59:18.070Z,14.40
2022-09-09T18:01:48.043Z,14.40
2022-09-09T18:04:17.771Z,14.40
2022-09-09T18:06:47.938Z,14.40
2022-09-09T18:09:19.932Z,14.30
2022-09-09T18:11:49.877Z,14.30
2022-09-09T18:14:23.090Z,14.30
2022-09-09T18:16:51.359Z,14.30
2022-09-09T18:19:24.117Z,14.30
2022-09-09T18:21:53.406Z,14.30
2022-09-09T18:24:22.122Z,14.30
2022-09-09T18:26:50.612Z,14.30
2022-09-09T18:29:21.004Z,14.40
2022-09-09T18:31:50.120Z,14.40
2022-09-09T18:34:18.797Z,14.40
2022-09-09T18:36:49.489Z,14.40
2022-09-09T18:39:18.859Z,14.40
2022-09-09T18:41:52.731Z,14.40
2022-09-09T18:44:23.326Z,14.40
2022-09-09T18:46:53.583Z,14.40
2022-09-09T18:49:22.340Z,14.40
2022-09-09T18:51:49.863Z,14.40
2022-09-09T18:54:20.893Z,14.40
2022-09-09T18:56:48.567Z,14.40
2022-09-09T18:59:21.527Z,14.40
2022-09-09T19:01:50.728Z,14.40
2022-09-09T19:04:18.962Z,14.40
2022-09-09T19:06:48.312Z,14.30
2022-09-09T19:09:18.580Z,14.40
2022-09-09T19:11:47.231Z,14.30
2022-09-09T19:14:17.367Z,14.20
2022-09-09T19:16:47.828Z,14.20
2022-09-09T19:19:21.633Z,14.20
2022-09-09T19:21:51.708Z,14.20
2022-09-09T19:24:21.888Z,14.20
2022-09-09T19:26:52.412Z,14.20
2022-09-09T19:29:22.948Z,14.30
2022-09-09T19:32:29.263Z,14.30
2022-09-09T19:34:39.661Z,14.30
2022-09-09T19:37:07.119Z,14.30
2022-09-09T19:39:34.688Z,14.20
2022-09-09T19:42:02.850Z,14.20
2022-09-09T19:44:30.010Z,14.20
2022-09-09T19:46:57.452Z,14.20
2022-09-09T19:49:25.368Z,14.20
2022-09-09T19:51:52.516Z,14.10
2022-09-09T19:54:19.667Z,14.10
2022-09-09T19:56:46.988Z,14.10
2022-09-09T19:59:15.708Z,14.10
2022-09-09T20:01:45.004Z,14.10
2022-09-09T20:04:14.985Z,14.00
2022-09-09T20:06:44.562Z,14.00
2022-09-09T20:09:17.422Z,14.00
2022-09-09T20:11:48.563Z,14.00
2022-09-09T20:14:17.121Z,14.00
2022-09-09T20:16:45.694Z,14.00
2022-09-09T20:19:16.489Z,14.00
2022-09-09T20:21:47.889Z,13.90
2022-09-09T20:24:18.936Z,13.90
2022-09-09T20:26:48.258Z,14.00
2022-09-09T20:29:18.246Z,13.90
2022-09-09T20:31:46.663Z,13.90
2022-09-09T20:34:17.177Z,13.90
2022-09-09T20:36:44.766Z,13.90
2022-09-09T20:39:18.347Z,13.90
2022-09-09T20:41:46.470Z,13.90
2022-09-09T20:44:20.129Z,13.80
2022-09-09T20:46:50.081Z,13.90
2022-09-09T20:49:19.775Z,13.90
2022-09-09T20:51:49.853Z,13.90
2022-09-09T20:54:23.537Z,13.90
2022-09-09T20:56:52.816Z,14.00
2022-09-09T20:59:22.944Z,14.00
2022-09-09T21:01:50.677Z,13.90
2022-09-09T21:04:19.891Z,14.00
2022-09-09T21:06:47.998Z,14.00
2022-09-09T21:09:15.624Z,14.00
2022-09-09T21:11:43.196Z,14.00
2022-09-09T21:14:10.944Z,14.00
2022-09-09T21:16:38.160Z,14.00
2022-09-09T21:19:06.889Z,14.00
2022-09-09T21:21:34.102Z,13.90
2022-09-09T21:24:02.946Z,13.90
2022-09-09T21:26:30.868Z,13.90
2022-09-09T21:28:57.979Z,13.90
2022-09-09T21:31:27.816Z,13.90
2022-09-09T21:33:57.594Z,13.90
2022-09-09T21:36:25.531Z,13.80
2022-09-09T21:38:52.708Z,13.80
2022-09-09T21:41:20.372Z,13.80
2022-09-09T21:43:52.922Z,13.80
2022-09-09T21:46:21.235Z,13.80
2022-09-09T21:48:49.096Z,13.80
2022-09-09T21:51:17.711Z,13.80
2022-09-09T21:53:45.508Z,13.70
2022-09-09T21:56:18.372Z,13.70
2022-09-09T21:58:46.915Z,13.80
2022-09-09T22:01:18.820Z,13.70
2022-09-09T22:03:46.726Z,13.70
2022-09-09T22:06:16.211Z,13.70
2022-09-09T22:08:44.751Z,13.70
2022-09-09T22:11:19.021Z,13.70
2022-09-09T22:13:46.403Z,13.70
2022-09-09T22:16:17.246Z,13.70
2022-09-09T22:18:45.013Z,13.70
2022-09-09T22:21:16.222Z,13.70
2022-09-09T22:23:43.504Z,13.70
2022-09-09T22:26:11.113Z,13.70
2022-09-09T22:28:39.894Z,13.60
2022-09-09T22:31:07.450Z,13.60
2022-09-09T22:33:35.196Z,13.70
2022-09-09T22:36:03.003Z,13.60
2022-09-09T22:38:30.181Z,13.60
2022-09-09T22:40:57.354Z,13.60
2022-09-09T22:43:24.709Z,13.70
2022-09-09T22:45:51.807Z,13.70
2022-09-09T22:48:19.149Z,13.70
2022-09-09T22:50:47.366Z,13.70
2022-09-09T22:53:16.641Z,13.70
2022-09-09T22:55:54.579Z,13.80
2022-09-09T22:58:22.437Z,13.80
2022-09-09T23:00:51.282Z,13.70
2022-09-09T23:03:19.051Z,13.70
2022-09-09T23:05:57.638Z,13.60
2022-09-09T23:08:33.457Z,13.70
2022-09-09T23:11:04.412Z,13.60
2022-09-09T23:13:33.151Z,13.60
2022-09-09T23:16:04.195Z,13.60
2022-09-09T23:18:34.143Z,13.50
2022-09-09T23:21:01.264Z,13.60
2022-09-09T23:23:29.241Z,13.60
2022-09-09T23:25:57.192Z,13.50
2022-09-09T23:28:24.340Z,13.60
2022-09-09T23:30:52.056Z,13.50
2022-09-09T23:33:19.530Z,13.50
2022-09-09T23:35:47.029Z,13.40
2022-09-09T23:38:14.953Z,13.40
2022-09-09T23:40:43.220Z,13.40
2022-09-09T23:43:10.551Z,13.40
2022-09-09T23:45:37.600Z,13.40
2022-09-09T23:48:05.404Z,13.50
2022-09-09T23:50:32.486Z,13.50
2022-09-09T23:52:59.585Z,13.50
2022-09-09T23:55:27.006Z,13.40
2022-09-09T23:57:56.765Z,13.40
